createdAt,value
2019-06-01T00:00:10.331Z,0
2019-06-01T00:00:55.534Z,0
2019-06-01T00:01:55.608Z,0
2019-06-01T00:02:57.195Z,0
2019-06-01T00:03:55.538Z,0
2019-06-01T00:04:55.613Z,0
2019-06-01T00:05:55.610Z,0
2019-06-01T00:06:55.549Z,0
2019-06-01T00:07:55.610Z,0
2019-06-01T00:08:55.612Z,0
2019-06-01T00:09:55.489Z,0
2019-06-01T00:10:55.611Z,0
2019-06-01T00:11:55.491Z,0
2019-06-01T00:12:55.543Z,0
2019-06-01T00:13:55.546Z,0
2019-06-01T00:14:55.567Z,0
2019-06-01T00:15:55.564Z,0
2019-06-01T00:16:55.553Z,0
2019-06-01T00:17:55.521Z,0
2019-06-01T00:18:55.617Z,0
2019-06-01T00:19:55.618Z,0
2019-06-01T00:20:55.619Z,0
2019-06-01T00:21:55.561Z,0
2019-06-01T00:22:55.555Z,0
2019-06-01T00:23:55.545Z,0
2019-06-01T00:24:55.550Z,0
2019-06-01T00:25:55.628Z,0
2019-06-01T00:26:55.560Z,0
2019-06-01T00:27:55.549Z,0
2019-06-01T00:28:55.631Z,0
2019-06-01T00:29:55.569Z,0
2019-06-01T00:30:55.556Z,0
2019-06-01T00:31:55.642Z,0
2019-06-01T00:32:55.626Z,0
2019-06-01T00:33:55.559Z,0
2019-06-01T00:34:55.639Z,0
2019-06-01T00:35:55.555Z,0
2019-06-01T00:36:55.560Z,0
2019-06-01T00:37:55.631Z,0
2019-06-01T00:38:55.575Z,0
2019-06-01T00:39:55.586Z,0
2019-06-01T00:40:55.585Z,0
2019-06-01T00:41:55.640Z,0
2019-06-01T00:42:55.582Z,0
2019-06-01T00:43:55.573Z,0
2019-06-01T00:44:55.590Z,0
2019-06-01T00:45:55.647Z,0
2019-06-01T00:46:55.648Z,0
2019-06-01T00:47:55.656Z,0
2019-06-01T00:48:55.552Z,0
2019-06-01T00:49:55.639Z,0
2019-06-01T00:50:55.582Z,0
2019-06-01T00:51:55.533Z,0
2019-06-01T00:52:55.564Z,0
2019-06-01T00:53:55.627Z,0
2019-06-01T00:54:55.630Z,0
2019-06-01T00:55:55.552Z,0
2019-06-01T00:56:55.639Z,0
2019-06-01T00:57:55.699Z,0
2019-06-01T00:58:55.631Z,0
2019-06-01T00:59:55.612Z,0
2019-06-01T01:00:55.600Z,0
2019-06-01T01:01:55.549Z,0
2019-06-01T01:02:55.584Z,0
2019-06-01T01:03:55.533Z,0
2019-06-01T01:04:55.649Z,0
2019-06-01T01:05:55.669Z,0
2019-06-01T01:06:55.558Z,0
2019-06-01T01:07:55.618Z,0
2019-06-01T01:08:55.587Z,0
2019-06-01T01:09:55.656Z,0
2019-06-01T01:10:55.666Z,0
2019-06-01T01:11:55.594Z,0
2019-06-01T01:12:55.657Z,0
2019-06-01T01:13:55.591Z,0
2019-06-01T01:14:55.661Z,0
2019-06-01T01:15:55.658Z,0
2019-06-01T01:16:55.811Z,0
2019-06-01T01:17:56.190Z,0
2019-06-01T01:18:55.978Z,0
2019-06-01T01:19:56.043Z,0
2019-06-01T01:20:56.275Z,0
2019-06-01T01:21:56.336Z,0
2019-06-01T01:22:56.468Z,0
2019-06-01T01:23:56.656Z,0
2019-06-01T01:24:56.548Z,0
2019-06-01T01:25:56.653Z,0
2019-06-01T01:26:56.700Z,0
2019-06-01T01:27:56.914Z,0
2019-06-01T01:28:56.926Z,0
2019-06-01T01:29:55.670Z,0
2019-06-01T01:31:06.507Z,0
2019-06-01T01:31:55.679Z,0
2019-06-01T01:32:55.940Z,0
2019-06-01T01:33:55.680Z,0
2019-06-01T01:34:55.649Z,0
2019-06-01T01:35:55.889Z,0
2019-06-01T01:36:56.079Z,0
2019-06-01T01:37:55.945Z,0
2019-06-01T01:38:56.243Z,0
2019-06-01T01:39:56.296Z,0
2019-06-01T01:40:56.263Z,0
2019-06-01T01:41:56.311Z,0
2019-06-01T01:42:56.496Z,0
2019-06-01T01:43:56.550Z,0
2019-06-01T01:44:56.627Z,0
2019-06-01T01:45:56.878Z,0
2019-06-01T01:46:56.891Z,0
2019-06-01T01:47:57.041Z,0
2019-06-01T01:48:56.182Z,0
2019-06-01T01:49:56.129Z,0
2019-06-01T01:50:56.424Z,0
2019-06-01T01:51:55.643Z,0
2019-06-01T01:52:57.056Z,0
2019-06-01T01:53:56.662Z,0
2019-06-01T01:54:56.751Z,0
2019-06-01T01:55:57.164Z,0
2019-06-01T01:56:56.176Z,0
2019-06-01T01:57:55.598Z,0
2019-06-01T01:58:56.476Z,0
2019-06-01T01:59:55.696Z,0
2019-06-01T02:00:56.835Z,0
2019-06-01T02:01:56.554Z,0
2019-06-01T02:02:55.890Z,0
2019-06-01T02:03:57.285Z,0
2019-06-01T02:04:55.863Z,0
2019-06-01T02:05:56.890Z,0
2019-06-01T02:06:55.948Z,0
2019-06-01T02:07:55.649Z,0
2019-06-01T02:08:55.713Z,0
2019-06-01T02:09:55.715Z,0
2019-06-01T02:10:55.723Z,0
2019-06-01T02:11:55.717Z,0
2019-06-01T02:12:55.730Z,0
2019-06-01T02:13:55.673Z,0
2019-06-01T02:14:55.670Z,0
2019-06-01T02:15:56.183Z,0
2019-06-01T02:16:56.246Z,0
2019-06-01T02:17:56.044Z,0
2019-06-01T02:18:57.192Z,0
2019-06-01T02:19:56.091Z,0
2019-06-01T02:20:56.274Z,0
2019-06-01T02:21:56.453Z,0
2019-06-01T02:22:56.781Z,0
2019-06-01T02:23:56.871Z,0
2019-06-01T02:24:55.860Z,0
2019-06-01T02:25:56.841Z,0
2019-06-01T02:26:57.122Z,0
2019-06-01T02:27:57.205Z,0
2019-06-01T02:28:55.639Z,0
2019-06-01T02:29:55.656Z,0
2019-06-01T02:30:56.222Z,0
2019-06-01T02:31:56.651Z,0
2019-06-01T02:32:56.347Z,0
2019-06-01T02:33:56.336Z,0
2019-06-01T02:34:56.417Z,0
2019-06-01T02:35:56.305Z,0
2019-06-01T02:36:56.481Z,0
2019-06-01T02:37:56.441Z,0
2019-06-01T02:38:56.502Z,0
2019-06-01T02:39:56.736Z,0
2019-06-01T02:40:57.104Z,0
2019-06-01T02:41:56.780Z,0
2019-06-01T02:42:57.132Z,0
2019-06-01T02:43:57.343Z,0
2019-06-01T02:44:57.292Z,0
2019-06-01T02:45:56.298Z,0
2019-06-01T02:46:56.975Z,0
2019-06-01T02:47:57.405Z,0
2019-06-01T02:48:57.258Z,0
2019-06-01T02:49:56.132Z,0
2019-06-01T02:50:55.855Z,0
2019-06-01T02:51:55.744Z,0
2019-06-01T02:52:55.682Z,0
2019-06-01T02:53:55.700Z,5
2019-06-01T02:54:55.704Z,5
2019-06-01T02:55:55.861Z,5
2019-06-01T02:56:55.874Z,5
2019-06-01T02:57:56.013Z,5
2019-06-01T02:58:56.114Z,5
2019-06-01T02:59:56.308Z,5
2019-06-01T03:00:56.576Z,5
2019-06-01T03:01:58.212Z,11
2019-06-01T03:02:56.571Z,11
2019-06-01T03:03:57.414Z,11
2019-06-01T03:04:57.015Z,11
2019-06-01T03:05:55.742Z,16
2019-06-01T03:06:55.677Z,16
2019-06-01T03:07:55.740Z,16
2019-06-01T03:08:55.687Z,16
2019-06-01T03:09:55.756Z,22
2019-06-01T03:10:55.767Z,22
2019-06-01T03:11:55.687Z,28
2019-06-01T03:12:55.766Z,28
2019-06-01T03:13:55.771Z,28
2019-06-01T03:14:55.688Z,33
2019-06-01T03:15:55.709Z,33
2019-06-01T03:16:55.693Z,39
2019-06-01T03:17:55.768Z,39
2019-06-01T03:18:55.700Z,45
2019-06-01T03:19:55.699Z,45
2019-06-01T03:20:55.826Z,50
2019-06-01T03:21:55.767Z,50
2019-06-01T03:22:55.763Z,56
2019-06-01T03:23:55.694Z,61
2019-06-01T03:24:55.768Z,61
2019-06-01T03:25:55.694Z,67
2019-06-01T03:26:55.914Z,67
2019-06-01T03:27:55.781Z,73
2019-06-01T03:28:55.713Z,78
2019-06-01T03:29:55.756Z,84
2019-06-01T03:30:55.757Z,84
2019-06-01T03:31:55.696Z,90
2019-06-01T03:32:55.763Z,95
2019-06-01T03:33:55.691Z,106
2019-06-01T03:34:55.690Z,112
2019-06-01T03:35:55.674Z,112
2019-06-01T03:36:56.358Z,123
2019-06-01T03:37:55.760Z,129
2019-06-01T03:38:55.760Z,135
2019-06-01T03:39:55.766Z,140
2019-06-01T03:40:55.766Z,146
2019-06-01T03:41:55.769Z,146
2019-06-01T03:42:55.690Z,151
2019-06-01T03:43:55.699Z,157
2019-06-01T03:44:55.696Z,163
2019-06-01T03:45:55.772Z,163
2019-06-01T03:46:55.684Z,168
2019-06-01T03:47:55.774Z,174
2019-06-01T03:48:55.772Z,180
2019-06-01T03:49:55.777Z,180
2019-06-01T03:50:55.706Z,185
2019-06-01T03:51:55.775Z,185
2019-06-01T03:52:55.701Z,185
2019-06-01T03:53:55.700Z,191
2019-06-01T03:54:55.781Z,191
2019-06-01T03:55:55.700Z,185
2019-06-01T03:56:55.732Z,191
2019-06-01T03:57:55.778Z,191
2019-06-01T03:58:55.705Z,196
2019-06-01T03:59:55.720Z,208
2019-06-01T04:00:55.782Z,208
2019-06-01T04:01:55.717Z,208
2019-06-01T04:02:55.712Z,208
2019-06-01T04:03:55.785Z,208
2019-06-01T04:04:55.784Z,213
2019-06-01T04:05:55.782Z,213
2019-06-01T04:06:55.789Z,225
2019-06-01T04:07:55.728Z,230
2019-06-01T04:08:55.787Z,241
2019-06-01T04:09:55.731Z,241
2019-06-01T04:10:55.807Z,247
2019-06-01T04:11:55.797Z,258
2019-06-01T04:12:55.811Z,264
2019-06-01T04:13:55.748Z,270
2019-06-01T04:14:55.799Z,281
2019-06-01T04:15:55.737Z,286
2019-06-01T04:16:55.806Z,298
2019-06-01T04:17:55.761Z,303
2019-06-01T04:18:55.806Z,320
2019-06-01T04:19:55.780Z,315
2019-06-01T04:20:55.746Z,326
2019-06-01T04:21:55.812Z,343
2019-06-01T04:22:55.735Z,337
2019-06-01T04:23:55.742Z,348
2019-06-01T04:24:55.757Z,360
2019-06-01T04:25:55.824Z,376
2019-06-01T04:26:55.807Z,393
2019-06-01T04:27:55.745Z,405
2019-06-01T04:28:55.815Z,410
2019-06-01T04:29:55.811Z,421
2019-06-01T04:30:55.758Z,433
2019-06-01T04:31:55.815Z,416
2019-06-01T04:32:55.749Z,427
2019-06-01T04:33:55.820Z,438
2019-06-01T04:34:55.819Z,438
2019-06-01T04:35:55.746Z,427
2019-06-01T04:36:55.746Z,433
2019-06-01T04:37:55.748Z,438
2019-06-01T04:38:55.816Z,438
2019-06-01T04:39:55.816Z,450
2019-06-01T04:40:55.741Z,455
2019-06-01T04:41:55.738Z,466
2019-06-01T04:42:55.772Z,478
2019-06-01T04:43:55.813Z,500
2019-06-01T04:44:55.820Z,500
2019-06-01T04:45:55.814Z,495
2019-06-01T04:46:55.728Z,500
2019-06-01T04:47:55.728Z,500
2019-06-01T04:48:55.761Z,500
2019-06-01T04:49:55.814Z,506
2019-06-01T04:50:55.742Z,523
2019-06-01T04:51:55.754Z,534
2019-06-01T04:52:55.745Z,556
2019-06-01T04:53:55.820Z,568
2019-06-01T04:54:55.757Z,579
2019-06-01T04:55:55.822Z,641
2019-06-01T04:56:55.756Z,663
2019-06-01T04:57:55.825Z,686
2019-06-01T04:58:55.825Z,624
2019-06-01T04:59:55.771Z,618
2019-06-01T05:00:55.838Z,618
2019-06-01T05:01:55.846Z,641
2019-06-01T05:03:04.992Z,613
2019-06-01T05:03:55.929Z,624
2019-06-01T05:04:55.781Z,613
2019-06-01T05:05:55.773Z,562
2019-06-01T05:06:55.899Z,568
2019-06-01T05:07:55.836Z,540
2019-06-01T05:08:55.845Z,579
2019-06-01T05:09:55.854Z,573
2019-06-01T05:10:55.833Z,585
2019-06-01T05:11:55.835Z,624
2019-06-01T05:12:55.745Z,579
2019-06-01T05:13:55.829Z,579
2019-06-01T05:14:55.744Z,556
2019-06-01T05:15:55.843Z,562
2019-06-01T05:16:55.841Z,568
2019-06-01T05:17:55.840Z,568
2019-06-01T05:18:55.771Z,590
2019-06-01T05:19:55.845Z,613
2019-06-01T05:20:55.836Z,635
2019-06-01T05:21:55.841Z,652
2019-06-01T05:22:55.810Z,652
2019-06-01T05:23:55.752Z,652
2019-06-01T05:24:55.767Z,686
2019-06-01T05:25:55.846Z,720
2019-06-01T05:26:55.774Z,691
2019-06-01T05:27:55.846Z,697
2019-06-01T05:28:55.846Z,703
2019-06-01T05:29:55.859Z,691
2019-06-01T05:30:55.862Z,686
2019-06-01T05:31:55.788Z,691
2019-06-01T05:32:55.872Z,708
2019-06-01T05:33:55.820Z,714
2019-06-01T05:34:55.801Z,725
2019-06-01T05:35:55.796Z,748
2019-06-01T05:36:55.798Z,753
2019-06-01T05:37:55.872Z,781
2019-06-01T05:38:55.799Z,798
2019-06-01T05:39:55.862Z,821
2019-06-01T05:40:55.808Z,877
2019-06-01T05:41:55.873Z,1096
2019-06-01T05:42:55.871Z,1186
2019-06-01T05:43:55.888Z,1141
2019-06-01T05:44:55.802Z,1113
2019-06-01T05:45:55.876Z,1186
2019-06-01T05:46:55.876Z,1333
2019-06-01T05:47:55.806Z,1462
2019-06-01T05:48:55.872Z,1614
2019-06-01T05:49:55.828Z,1693
2019-06-01T05:50:55.896Z,1749
2019-06-01T05:51:55.873Z,1591
2019-06-01T05:52:55.879Z,1800
2019-06-01T05:53:55.807Z,1771
2019-06-01T05:54:55.887Z,1620
2019-06-01T05:55:55.808Z,1586
2019-06-01T05:56:55.875Z,1603
2019-06-01T05:57:55.878Z,1614
2019-06-01T05:58:55.882Z,1575
2019-06-01T05:59:55.869Z,1552
2019-06-01T06:00:55.861Z,1496
2019-06-01T06:01:55.797Z,1541
2019-06-01T06:02:55.874Z,1552
2019-06-01T06:03:55.774Z,1524
2019-06-01T06:04:55.875Z,1513
2019-06-01T06:05:55.878Z,1575
2019-06-01T06:06:55.756Z,1563
2019-06-01T06:07:55.875Z,1513
2019-06-01T06:08:55.877Z,1541
2019-06-01T06:09:55.751Z,1541
2019-06-01T06:10:55.829Z,1580
2019-06-01T06:11:55.842Z,1698
2019-06-01T06:12:55.875Z,1726
2019-06-01T06:13:55.817Z,1698
2019-06-01T06:14:55.883Z,1698
2019-06-01T06:15:55.751Z,1665
2019-06-01T06:16:55.761Z,1518
2019-06-01T06:17:55.896Z,1698
2019-06-01T06:18:55.785Z,1800
2019-06-01T06:19:55.817Z,1794
2019-06-01T06:20:55.855Z,1800
2019-06-01T06:21:55.811Z,1839
2019-06-01T06:22:55.757Z,1895
2019-06-01T06:23:55.872Z,1968
2019-06-01T06:24:55.880Z,1980
2019-06-01T06:25:55.871Z,1996
2019-06-01T06:26:55.791Z,2053
2019-06-01T06:27:55.805Z,1985
2019-06-01T06:28:55.888Z,1873
2019-06-01T06:29:55.910Z,2205
2019-06-01T06:30:55.849Z,2193
2019-06-01T06:31:55.835Z,2345
2019-06-01T06:32:55.908Z,2368
2019-06-01T06:33:56.939Z,2463
2019-06-01T06:34:55.907Z,2480
2019-06-01T06:35:55.903Z,2491
2019-06-01T06:36:55.924Z,2475
2019-06-01T06:37:55.840Z,2475
2019-06-01T06:38:55.839Z,2469
2019-06-01T06:39:55.872Z,2475
2019-06-01T06:40:55.827Z,2244
2019-06-01T06:41:55.838Z,2126
2019-06-01T06:42:55.904Z,2289
2019-06-01T06:43:55.918Z,2205
2019-06-01T06:44:55.906Z,2070
2019-06-01T06:45:55.812Z,1878
2019-06-01T06:46:55.819Z,1755
2019-06-01T06:47:55.909Z,1822
2019-06-01T06:48:55.848Z,1687
2019-06-01T06:49:55.871Z,1828
2019-06-01T06:50:55.913Z,2047
2019-06-01T06:51:55.895Z,2171
2019-06-01T06:52:55.795Z,2323
2019-06-01T06:53:55.834Z,2480
2019-06-01T06:54:55.821Z,2508
2019-06-01T06:55:55.779Z,2266
2019-06-01T06:56:55.891Z,2649
2019-06-01T06:57:55.784Z,2823
2019-06-01T06:58:55.873Z,2851
2019-06-01T06:59:55.842Z,2896
2019-06-01T07:00:55.931Z,2964
2019-06-01T07:01:55.919Z,2829
2019-06-01T07:02:55.845Z,3020
2019-06-01T07:04:09.380Z,3009
2019-06-01T07:04:55.861Z,3076
2019-06-01T07:05:55.923Z,3054
2019-06-01T07:06:55.846Z,3065
2019-06-01T07:07:55.930Z,3071
2019-06-01T07:08:55.852Z,3110
2019-06-01T07:09:55.876Z,3015
2019-06-01T07:10:55.933Z,3026
2019-06-01T07:11:55.952Z,3076
2019-06-01T07:12:55.940Z,3093
2019-06-01T07:13:55.936Z,3121
2019-06-01T07:14:55.944Z,2576
2019-06-01T07:15:55.896Z,3166
2019-06-01T07:16:55.934Z,2885
2019-06-01T07:17:55.954Z,2773
2019-06-01T07:18:55.875Z,3026
2019-06-01T07:19:55.875Z,3071
2019-06-01T07:20:55.940Z,3121
2019-06-01T07:21:55.944Z,3110
2019-06-01T07:22:55.883Z,3183
2019-06-01T07:23:55.965Z,3195
2019-06-01T07:24:56.028Z,3138
2019-06-01T07:25:55.950Z,3155
2019-06-01T07:26:55.893Z,3178
2019-06-01T07:27:55.971Z,3217
2019-06-01T07:28:55.895Z,3223
2019-06-01T07:29:55.961Z,3256
2019-06-01T07:30:55.876Z,3318
2019-06-01T07:31:55.963Z,3380
2019-06-01T07:32:55.898Z,3386
2019-06-01T07:33:56.017Z,3318
2019-06-01T07:34:55.881Z,3285
2019-06-01T07:35:55.959Z,3110
2019-06-01T07:36:55.965Z,3223
2019-06-01T07:37:55.962Z,3166
2019-06-01T07:38:55.953Z,3313
2019-06-01T07:39:55.940Z,3414
2019-06-01T07:40:55.878Z,3335
2019-06-01T07:41:55.905Z,3324
2019-06-01T07:42:55.947Z,3324
2019-06-01T07:43:55.942Z,3228
2019-06-01T07:44:55.901Z,3442
2019-06-01T07:45:55.885Z,3616
2019-06-01T07:46:55.879Z,3583
2019-06-01T07:47:55.952Z,3673
2019-06-01T07:48:55.879Z,3735
2019-06-01T07:49:56.009Z,3757
2019-06-01T07:50:55.960Z,3768
2019-06-01T07:51:56.061Z,3735
2019-06-01T07:52:55.952Z,3768
2019-06-01T07:53:55.960Z,3751
2019-06-01T07:54:55.955Z,3780
2019-06-01T07:55:55.953Z,3785
2019-06-01T07:56:55.960Z,3667
2019-06-01T07:57:55.957Z,3740
2019-06-01T07:58:55.892Z,3768
2019-06-01T07:59:55.934Z,3757
2019-06-01T08:00:55.970Z,3605
2019-06-01T08:01:55.936Z,3526
2019-06-01T08:02:55.972Z,3436
2019-06-01T08:03:55.974Z,3425
2019-06-01T08:04:55.971Z,3391
2019-06-01T08:05:55.986Z,3369
2019-06-01T08:06:56.020Z,3414
2019-06-01T08:07:55.909Z,3498
2019-06-01T08:08:55.978Z,3555
2019-06-01T08:09:55.967Z,3656
2019-06-01T08:10:55.866Z,3768
2019-06-01T08:11:55.960Z,3791
2019-06-01T08:12:55.841Z,3791
2019-06-01T08:13:55.846Z,3853
2019-06-01T08:14:55.963Z,3864
2019-06-01T08:15:55.896Z,4010
2019-06-01T08:16:55.960Z,4066
2019-06-01T08:17:55.910Z,4179
2019-06-01T08:18:55.863Z,4252
2019-06-01T08:19:55.978Z,4342
2019-06-01T08:20:55.977Z,4381
2019-06-01T08:21:56.001Z,4331
2019-06-01T08:22:55.917Z,4325
2019-06-01T08:23:55.989Z,4246
2019-06-01T08:24:55.989Z,4185
2019-06-01T08:25:55.931Z,4111
2019-06-01T08:26:55.995Z,4128
2019-06-01T08:27:55.988Z,4196
2019-06-01T08:28:55.926Z,4168
2019-06-01T08:29:55.994Z,4061
2019-06-01T08:30:55.991Z,4128
2019-06-01T08:31:56.127Z,4213
2019-06-01T08:32:56.004Z,4320
2019-06-01T08:33:55.939Z,4342
2019-06-01T08:35:07.987Z,4308
2019-06-01T08:35:55.998Z,4348
2019-06-01T08:36:55.897Z,4331
2019-06-01T08:37:56.021Z,4303
2019-06-01T08:38:55.931Z,4185
2019-06-01T08:39:59.107Z,4162
2019-06-01T08:40:56.000Z,3346
2019-06-01T08:41:55.998Z,3628
2019-06-01T08:42:55.947Z,3195
2019-06-01T08:43:56.029Z,3279
2019-06-01T08:44:56.002Z,3583
2019-06-01T08:45:56.001Z,3459
2019-06-01T08:46:55.943Z,3571
2019-06-01T08:47:56.005Z,3566
2019-06-01T08:48:55.945Z,4066
2019-06-01T08:49:56.030Z,3650
2019-06-01T08:50:56.010Z,3262
2019-06-01T08:51:55.943Z,3600
2019-06-01T08:52:55.943Z,3898
2019-06-01T08:53:55.954Z,3870
2019-06-01T08:54:56.009Z,3436
2019-06-01T08:55:55.946Z,3577
2019-06-01T08:56:56.013Z,4162
2019-06-01T08:57:55.940Z,4291
2019-06-01T08:58:55.944Z,4320
2019-06-01T08:59:55.943Z,4421
2019-06-01T09:00:55.944Z,4483
2019-06-01T09:01:55.931Z,4511
2019-06-01T09:02:56.005Z,4646
2019-06-01T09:03:56.010Z,4719
2019-06-01T09:04:56.008Z,4387
2019-06-01T09:05:55.940Z,4443
2019-06-01T09:06:55.936Z,4179
2019-06-01T09:07:56.014Z,4286
2019-06-01T09:08:55.960Z,3909
2019-06-01T09:09:56.017Z,3774
2019-06-01T09:10:55.938Z,4196
2019-06-01T09:11:55.945Z,4016
2019-06-01T09:12:55.943Z,4111
2019-06-01T09:13:55.938Z,4089
2019-06-01T09:14:56.054Z,4140
2019-06-01T09:15:56.015Z,4218
2019-06-01T09:16:55.906Z,4218
2019-06-01T09:17:56.024Z,4218
2019-06-01T09:18:55.961Z,4269
2019-06-01T09:19:56.119Z,4438
2019-06-01T09:20:56.038Z,4860
2019-06-01T09:21:55.958Z,4888
2019-06-01T09:22:55.946Z,4955
2019-06-01T09:23:55.977Z,4865
2019-06-01T09:24:56.028Z,4916
2019-06-01T09:25:56.018Z,4905
2019-06-01T09:26:56.026Z,4972
2019-06-01T09:27:56.120Z,4798
2019-06-01T09:28:55.933Z,4848
2019-06-01T09:29:55.962Z,4803
2019-06-01T09:30:55.894Z,4910
2019-06-01T09:31:55.995Z,4837
2019-06-01T09:32:55.987Z,4871
2019-06-01T09:33:55.945Z,4966
2019-06-01T09:34:55.917Z,4865
2019-06-01T09:35:56.534Z,4516
2019-06-01T09:36:55.990Z,4764
2019-06-01T09:37:55.992Z,4758
2019-06-01T09:38:55.942Z,4916
2019-06-01T09:39:56.009Z,4995
2019-06-01T09:40:56.059Z,4961
2019-06-01T09:41:56.095Z,4938
2019-06-01T09:42:56.052Z,4966
2019-06-01T09:43:56.048Z,4871
2019-06-01T09:44:56.008Z,4888
2019-06-01T09:45:56.047Z,4843
2019-06-01T09:46:55.978Z,4809
2019-06-01T09:47:56.193Z,4831
2019-06-01T09:48:55.982Z,4815
2019-06-01T09:49:56.048Z,4511
2019-06-01T09:50:56.047Z,4078
2019-06-01T09:51:56.003Z,4438
2019-06-01T09:52:56.066Z,4078
2019-06-01T09:53:56.033Z,4421
2019-06-01T09:54:55.985Z,4651
2019-06-01T09:55:56.074Z,4736
2019-06-01T09:56:56.066Z,4798
2019-06-01T09:57:55.985Z,5028
2019-06-01T09:58:56.061Z,4905
2019-06-01T09:59:56.064Z,5107
2019-06-01T10:00:55.956Z,4809
2019-06-01T10:01:56.047Z,4708
2019-06-01T10:02:55.964Z,4376
2019-06-01T10:03:56.060Z,4573
2019-06-01T10:04:55.979Z,4055
2019-06-01T10:06:01.820Z,4398
2019-06-01T10:06:56.047Z,4291
2019-06-01T10:07:55.970Z,4387
2019-06-01T10:08:55.990Z,4471
2019-06-01T10:09:56.055Z,4573
2019-06-01T10:10:56.066Z,4050
2019-06-01T10:11:56.071Z,2716
2019-06-01T10:12:56.008Z,2947
2019-06-01T10:13:56.004Z,2385
2019-06-01T10:14:56.075Z,2548
2019-06-01T10:15:56.076Z,3510
2019-06-01T10:16:56.008Z,4843
2019-06-01T10:17:56.073Z,4252
2019-06-01T10:18:56.007Z,3802
2019-06-01T10:19:56.006Z,4426
2019-06-01T10:20:56.085Z,4494
2019-06-01T10:21:56.075Z,4741
2019-06-01T10:22:56.002Z,5124
2019-06-01T10:23:56.081Z,5152
2019-06-01T10:24:56.075Z,4561
2019-06-01T10:25:56.016Z,3161
2019-06-01T10:26:56.015Z,3166
2019-06-01T10:27:56.087Z,2638
2019-06-01T10:28:56.087Z,2953
2019-06-01T10:29:56.082Z,3645
2019-06-01T10:30:55.971Z,3813
2019-06-01T10:31:56.034Z,5428
2019-06-01T10:32:56.062Z,5591
2019-06-01T10:33:56.001Z,5411
2019-06-01T10:34:56.006Z,5518
2019-06-01T10:35:55.953Z,5523
2019-06-01T10:36:56.016Z,5529
2019-06-01T10:37:56.069Z,5501
2019-06-01T10:38:56.028Z,5501
2019-06-01T10:39:56.022Z,5433
2019-06-01T10:40:56.095Z,5270
2019-06-01T10:41:56.092Z,4573
2019-06-01T10:42:56.026Z,4781
2019-06-01T10:43:56.032Z,4955
2019-06-01T10:44:56.026Z,4685
2019-06-01T10:45:56.095Z,4590
2019-06-01T10:46:56.100Z,4044
2019-06-01T10:47:56.107Z,4308
2019-06-01T10:48:56.094Z,4893
2019-06-01T10:49:56.096Z,5040
2019-06-01T10:50:56.029Z,5079
2019-06-01T10:51:56.091Z,5146
2019-06-01T10:52:56.035Z,5006
2019-06-01T10:53:56.096Z,5242
2019-06-01T10:54:55.996Z,5310
2019-06-01T10:55:56.099Z,5383
2019-06-01T10:56:56.032Z,5326
2019-06-01T10:57:56.100Z,5326
2019-06-01T10:59:00.374Z,5338
2019-06-01T10:59:56.071Z,5315
2019-06-01T11:00:56.034Z,5338
2019-06-01T11:01:56.107Z,5433
2019-06-01T11:02:56.035Z,5439
2019-06-01T11:03:56.105Z,5371
2019-06-01T11:04:56.118Z,5349
2019-06-01T11:05:56.112Z,5321
2019-06-01T11:06:56.057Z,5304
2019-06-01T11:07:56.114Z,5355
2019-06-01T11:08:56.079Z,5304
2019-06-01T11:09:56.104Z,5186
2019-06-01T11:10:56.003Z,5124
2019-06-01T11:11:56.105Z,5034
2019-06-01T11:12:56.003Z,5045
2019-06-01T11:13:56.098Z,5051
2019-06-01T11:14:56.007Z,4989
2019-06-01T11:15:56.098Z,4944
2019-06-01T11:16:56.871Z,4933
2019-06-01T11:17:56.072Z,4955
2019-06-01T11:18:56.114Z,4933
2019-06-01T11:19:56.050Z,4905
2019-06-01T11:20:56.113Z,4989
2019-06-01T11:21:56.057Z,5051
2019-06-01T11:22:56.068Z,5028
2019-06-01T11:23:56.128Z,4995
2019-06-01T11:24:56.121Z,4927
2019-06-01T11:25:56.124Z,4955
2019-06-01T11:26:56.141Z,5023
2019-06-01T11:27:56.136Z,5062
2019-06-01T11:28:56.055Z,5073
2019-06-01T11:29:56.054Z,5028
2019-06-01T11:30:56.056Z,4815
2019-06-01T11:31:56.061Z,5051
2019-06-01T11:32:56.131Z,5124
2019-06-01T11:33:56.126Z,4933
2019-06-01T11:34:56.056Z,4719
2019-06-01T11:35:56.065Z,5028
2019-06-01T11:37:06.063Z,4944
2019-06-01T11:37:56.129Z,5034
2019-06-01T11:38:56.137Z,4933
2019-06-01T11:39:56.130Z,4843
2019-06-01T11:40:56.033Z,5034
2019-06-01T11:41:56.101Z,5096
2019-06-01T11:42:56.024Z,3150
2019-06-01T11:43:56.134Z,5085
2019-06-01T11:44:56.057Z,5101
2019-06-01T11:45:56.050Z,5011
2019-06-01T11:46:56.150Z,5017
2019-06-01T11:47:56.041Z,4966
2019-06-01T11:48:56.063Z,4910
2019-06-01T11:49:56.131Z,4888
2019-06-01T11:50:56.057Z,5163
2019-06-01T11:51:56.040Z,5180
2019-06-01T11:52:56.133Z,3937
2019-06-01T11:53:56.063Z,1479
2019-06-01T11:54:56.046Z,2334
2019-06-01T11:55:56.080Z,3026
2019-06-01T11:56:56.133Z,4815
2019-06-01T11:57:56.060Z,4865
2019-06-01T11:58:56.140Z,5028
2019-06-01T11:59:56.071Z,5017
2019-06-01T12:00:56.215Z,4978
2019-06-01T12:01:56.104Z,4854
2019-06-01T12:02:56.164Z,4826
2019-06-01T12:03:56.169Z,4927
2019-06-01T12:04:56.156Z,4995
2019-06-01T12:05:56.092Z,4899
2019-06-01T12:06:56.164Z,4848
2019-06-01T12:07:56.154Z,4021
2019-06-01T12:08:56.159Z,4179
2019-06-01T12:09:56.047Z,4888
2019-06-01T12:10:56.087Z,5017
2019-06-01T12:11:56.089Z,5068
2019-06-01T12:12:56.127Z,4961
2019-06-01T12:13:56.087Z,4854
2019-06-01T12:14:56.161Z,4820
2019-06-01T12:15:56.156Z,4725
2019-06-01T12:16:56.174Z,4567
2019-06-01T12:17:56.094Z,4590
2019-06-01T12:18:56.162Z,4764
2019-06-01T12:19:56.096Z,4702
2019-06-01T12:20:56.156Z,4561
2019-06-01T12:21:56.156Z,4674
2019-06-01T12:22:56.154Z,4708
2019-06-01T12:23:56.067Z,2261
2019-06-01T12:24:56.083Z,4471
2019-06-01T12:25:56.040Z,4466
2019-06-01T12:26:56.158Z,4522
2019-06-01T12:27:56.088Z,4618
2019-06-01T12:28:56.081Z,4651
2019-06-01T12:29:56.101Z,4533
2019-06-01T12:30:56.103Z,4561
2019-06-01T12:31:56.170Z,4533
2019-06-01T12:32:56.101Z,4708
2019-06-01T12:33:56.175Z,3864
2019-06-01T12:34:56.192Z,4640
2019-06-01T12:35:56.174Z,4730
2019-06-01T12:36:56.173Z,4713
2019-06-01T12:38:06.194Z,4696
2019-06-01T12:38:56.184Z,4770
2019-06-01T12:39:56.107Z,4668
2019-06-01T12:40:56.078Z,4494
2019-06-01T12:41:56.081Z,4528
2019-06-01T12:42:56.109Z,4410
2019-06-01T12:43:56.166Z,4567
2019-06-01T12:44:56.097Z,4320
2019-06-01T12:46:06.631Z,4387
2019-06-01T12:46:56.172Z,4404
2019-06-01T12:47:58.530Z,4376
2019-06-01T12:48:56.098Z,4381
2019-06-01T12:49:56.179Z,4308
2019-06-01T12:50:56.189Z,4117
2019-06-01T12:51:56.184Z,3931
2019-06-01T12:52:56.134Z,4134
2019-06-01T12:53:56.080Z,3526
2019-06-01T12:54:56.232Z,4128
2019-06-01T12:55:56.136Z,4185
2019-06-01T12:56:56.125Z,4241
2019-06-01T12:57:56.250Z,4286
2019-06-01T12:58:56.192Z,4235
2019-06-01T12:59:56.130Z,4297
2019-06-01T13:00:56.181Z,4387
2019-06-01T13:01:56.114Z,4331
2019-06-01T13:03:06.652Z,4168
2019-06-01T13:03:56.179Z,4134
2019-06-01T13:04:56.185Z,4117
2019-06-01T13:05:56.099Z,4044
2019-06-01T13:06:56.094Z,4050
2019-06-01T13:08:02.406Z,4089
2019-06-01T13:08:56.133Z,4083
2019-06-01T13:09:56.092Z,4207
2019-06-01T13:10:56.131Z,4241
2019-06-01T13:11:56.168Z,4246
2019-06-01T13:12:56.132Z,4151
2019-06-01T13:13:56.249Z,4224
2019-06-01T13:14:56.200Z,4393
2019-06-01T13:15:56.137Z,4449
2019-06-01T13:17:06.253Z,4556
2019-06-01T13:17:56.206Z,4516
2019-06-01T13:18:56.212Z,4336
2019-06-01T13:19:56.134Z,4398
2019-06-01T13:20:56.071Z,4494
2019-06-01T13:21:56.133Z,4376
2019-06-01T13:22:56.080Z,4286
2019-06-01T13:23:56.078Z,4140
2019-06-01T13:24:56.140Z,4095
2019-06-01T13:25:56.163Z,4055
2019-06-01T13:26:56.171Z,4078
2019-06-01T13:27:56.148Z,4173
2019-06-01T13:28:56.084Z,4072
2019-06-01T13:29:56.128Z,4095
2019-06-01T13:30:56.140Z,4095
2019-06-01T13:31:56.154Z,4106
2019-06-01T13:32:56.148Z,4201
2019-06-01T13:33:56.168Z,4196
2019-06-01T13:34:56.194Z,4128
2019-06-01T13:35:56.212Z,4140
2019-06-01T13:36:56.154Z,4201
2019-06-01T13:38:10.908Z,4050
2019-06-01T13:38:56.157Z,3909
2019-06-01T13:39:58.277Z,3718
2019-06-01T13:40:56.127Z,3780
2019-06-01T13:41:56.104Z,3605
2019-06-01T13:42:56.086Z,3538